sensor_id;sensor_type;location;lat;lon;timestamp;temperature;humidity
69031;DHT22;56083;48.774;8.942;2023-03-05T00:01:41;1.90;99.90
69031;DHT22;56083;48.774;8.942;2023-03-05T00:04:12;1.90;99.90
69031;DHT22;56083;48.774;8.942;2023-03-05T00:06:37;1.90;99.90
69031;DHT22;56083;48.774;8.942;2023-03-05T00:09:04;1.90;99.90
69031;DHT22;56083;48.774;8.942;2023-03-05T00:11:30;1.90;99.90
69031;DHT22;56083;48.774;8.942;2023-03-05T00:13:58;1.90;99.90
69031;DHT22;56083;48.774;8.942;2023-03-05T00:16:26;2.00;99.90
69031;DHT22;56083;48.774;8.942;2023-03-05T00:18:53;1.90;99.90
69031;DHT22;56083;48.774;8.942;2023-03-05T00:21:22;1.90;99.90
69031;DHT22;56083;48.774;8.942;2023-03-05T00:23:49;1.90;99.90
69031;DHT22;56083;48.774;8.942;2023-03-05T00:26:19;1.90;99.90
69031;DHT22;56083;48.774;8.942;2023-03-05T00:28:45;1.90;99.90
69031;DHT22;56083;48.774;8.942;2023-03-05T00:31:19;1.90;99.90
69031;DHT22;56083;48.774;8.942;2023-03-05T00:33:47;1.80;99.90
69031;DHT22;56083;48.774;8.942;2023-03-05T00:36:14;1.80;99.90
69031;DHT22;56083;48.774;8.942;2023-03-05T00:38:40;1.80;99.90
69031;DHT22;56083;48.774;8.942;2023-03-05T00:41:05;1.80;99.90
69031;DHT22;56083;48.774;8.942;2023-03-05T00:43:31;1.80;99.90
69031;DHT22;56083;48.774;8.942;2023-03-05T00:45:56;1.80;99.90
69031;DHT22;56083;48.774;8.942;2023-03-05T00:48:22;1.80;99.90
69031;DHT22;56083;48.774;8.942;2023-03-05T00:50:48;1.80;99.90
69031;DHT22;56083;48.774;8.942;2023-03-05T00:53:14;1.80;99.90
69031;DHT22;56083;48.774;8.942;2023-03-05T00:55:39;1.70;99.90
69031;DHT22;56083;48.774;8.942;2023-03-05T00:58:05;1.80;99.90
69031;DHT22;56083;48.774;8.942;2023-03-05T01:00:31;1.70;99.90
69031;DHT22;56083;48.774;8.942;2023-03-05T01:02:56;1.70;99.90
69031;DHT22;56083;48.774;8.942;2023-03-05T01:05:22;1.70;99.90
69031;DHT22;56083;48.774;8.942;2023-03-05T01:07:51;1.80;99.90
69031;DHT22;56083;48.774;8.942;2023-03-05T01:10:18;1.70;99.90
69031;DHT22;56083;48.774;8.942;2023-03-05T01:12:44;1.80;99.90
69031;DHT22;56083;48.774;8.942;2023-03-05T01:15:09;1.80;99.90
69031;DHT22;56083;48.774;8.942;2023-03-05T01:17:35;1.80;99.90
69031;DHT22;56083;48.774;8.942;2023-03-05T01:20:01;1.80;99.90
69031;DHT22;56083;48.774;8.942;2023-03-05T01:22:26;1.80;99.90
69031;DHT22;56083;48.774;8.942;2023-03-05T01:24:53;1.80;99.90
69031;DHT22;56083;48.774;8.942;2023-03-05T01:27:18;1.80;99.90
69031;DHT22;56083;48.774;8.942;2023-03-05T01:29:44;1.80;99.90
69031;DHT22;56083;48.774;8.942;2023-03-05T01:32:09;1.80;99.90
69031;DHT22;56083;48.774;8.942;2023-03-05T01:34:36;1.90;99.90
69031;DHT22;56083;48.774;8.942;2023-03-05T01:37:02;1.90;99.90
69031;DHT22;56083;48.774;8.942;2023-03-05T01:39:28;1.90;99.90
69031;DHT22;56083;48.774;8.942;2023-03-05T01:41:53;1.90;99.90
69031;DHT22;56083;48.774;8.942;2023-03-05T01:44:24;1.90;99.90
69031;DHT22;56083;48.774;8.942;2023-03-05T01:46:51;1.90;99.90
69031;DHT22;56083;48.774;8.942;2023-03-05T01:49:21;1.90;99.90
69031;DHT22;56083;48.774;8.942;2023-03-05T01:51:55;1.90;99.90
69031;DHT22;56083;48.774;8.942;2023-03-05T01:54:35;2.00;99.90
69031;DHT22;56083;48.774;8.942;2023-03-05T01:57:10;2.00;99.90
69031;DHT22;56083;48.774;8.942;2023-03-05T01:59:39;2.00;99.90
69031;DHT22;56083;48.774;8.942;2023-03-05T02:02:06;2.10;99.90
69031;DHT22;56083;48.774;8.942;2023-03-05T02:04:53;2.20;99.90
69031;DHT22;56083;48.774;8.942;2023-03-05T02:07:20;2.20;99.90
69031;DHT22;56083;48.774;8.942;2023-03-05T02:09:46;2.20;99.90
69031;DHT22;56083;48.774;8.942;2023-03-05T02:12:12;2.20;99.90
69031;DHT22;56083;48.774;8.942;2023-03-05T02:14:41;2.20;99.90
69031;DHT22;56083;48.774;8.942;2023-03-05T02:17:07;2.20;99.90
69031;DHT22;56083;48.774;8.942;2023-03-05T02:19:51;2.20;99.90
69031;DHT22;56083;48.774;8.942;2023-03-05T02:22:18;2.20;99.90
69031;DHT22;56083;48.774;8.942;2023-03-05T02:24:44;2.30;99.90
69031;DHT22;56083;48.774;8.942;2023-03-05T02:27:10;2.30;99.90
69031;DHT22;56083;48.774;8.942;2023-03-05T02:29:39;2.20;99.90
69031;DHT22;56083;48.774;8.942;2023-03-05T02:32:06;2.10;99.90
69031;DHT22;56083;48.774;8.942;2023-03-05T02:34:32;2.10;99.90
69031;DHT22;56083;48.774;8.942;2023-03-05T02:36:58;2.10;99.90
69031;DHT22;56083;48.774;8.942;2023-03-05T02:39:24;2.00;99.90
69031;DHT22;56083;48.774;8.942;2023-03-05T02:41:49;2.00;99.90
69031;DHT22;56083;48.774;8.942;2023-03-05T02:44:15;1.90;99.90
69031;DHT22;56083;48.774;8.942;2023-03-05T02:46:40;1.90;99.90
69031;DHT22;56083;48.774;8.942;2023-03-05T02:49:06;1.90;99.90
69031;DHT22;56083;48.774;8.942;2023-03-05T02:51:32;1.90;99.90
69031;DHT22;56083;48.774;8.942;2023-03-05T02:53:57;1.90;99.90
69031;DHT22;56083;48.774;8.942;2023-03-05T02:56:23;1.90;99.90
69031;DHT22;56083;48.774;8.942;2023-03-05T02:58:48;1.90;99.90
69031;DHT22;56083;48.774;8.942;2023-03-05T03:01:14;1.90;99.90
69031;DHT22;56083;48.774;8.942;2023-03-05T03:03:40;2.00;99.90
69031;DHT22;56083;48.774;8.942;2023-03-05T03:06:06;2.00;99.90
69031;DHT22;56083;48.774;8.942;2023-03-05T03:08:31;2.10;99.90
69031;DHT22;56083;48.774;8.942;2023-03-05T03:11:09;2.00;99.90
69031;DHT22;56083;48.774;8.942;2023-03-05T03:13:37;2.10;99.90
69031;DHT22;56083;48.774;8.942;2023-03-05T03:16:05;2.10;99.90
69031;DHT22;56083;48.774;8.942;2023-03-05T03:18:31;2.10;99.90
69031;DHT22;56083;48.774;8.942;2023-03-05T03:20:57;2.10;99.90
69031;DHT22;56083;48.774;8.942;2023-03-05T03:23:24;2.10;99.90
69031;DHT22;56083;48.774;8.942;2023-03-05T03:25:49;2.10;99.90
69031;DHT22;56083;48.774;8.942;2023-03-05T03:28:15;2.10;99.90
69031;DHT22;56083;48.774;8.942;2023-03-05T03:30:41;2.10;99.90
69031;DHT22;56083;48.774;8.942;2023-03-05T03:33:06;2.10;99.90
69031;DHT22;56083;48.774;8.942;2023-03-05T03:35:32;2.10;99.90
69031;DHT22;56083;48.774;8.942;2023-03-05T03:37:58;2.10;99.90
69031;DHT22;56083;48.774;8.942;2023-03-05T03:40:23;2.10;99.90
69031;DHT22;56083;48.774;8.942;2023-03-05T03:42:53;2.10;99.90
69031;DHT22;56083;48.774;8.942;2023-03-05T03:45:19;2.10;99.90
69031;DHT22;56083;48.774;8.942;2023-03-05T03:47:47;2.20;99.90
69031;DHT22;56083;48.774;8.942;2023-03-05T03:50:13;2.20;99.90
69031;DHT22;56083;48.774;8.942;2023-03-05T03:52:39;2.20;99.90
69031;DHT22;56083;48.774;8.942;2023-03-05T03:55:05;2.20;99.90
69031;DHT22;56083;48.774;8.942;2023-03-05T03:57:31;2.10;99.90
69031;DHT22;56083;48.774;8.942;2023-03-05T03:59:58;2.10;99.90
69031;DHT22;56083;48.774;8.942;2023-03-05T04:02:24;2.10;99.90
69031;DHT22;56083;48.774;8.942;2023-03-05T04:04:51;2.00;99.90
69031;DHT22;56083;48.774;8.942;2023-03-05T04:07:17;2.00;99.90
69031;DHT22;56083;48.774;8.942;2023-03-05T04:09:43;2.00;99.90
69031;DHT22;56083;48.774;8.942;2023-03-05T04:12:09;2.00;99.90
69031;DHT22;56083;48.774;8.942;2023-03-05T04:14:35;2.00;99.90
69031;DHT22;56083;48.774;8.942;2023-03-05T04:17:01;2.10;99.90
69031;DHT22;56083;48.774;8.942;2023-03-05T04:19:27;2.00;99.90
69031;DHT22;56083;48.774;8.942;2023-03-05T04:21:56;2.00;99.90
69031;DHT22;56083;48.774;8.942;2023-03-05T04:24:21;2.00;99.90
69031;DHT22;56083;48.774;8.942;2023-03-05T04:26:47;2.00;99.90
69031;DHT22;56083;48.774;8.942;2023-03-05T04:29:13;2.00;99.90
69031;DHT22;56083;48.774;8.942;2023-03-05T04:31:39;2.00;99.90
69031;DHT22;56083;48.774;8.942;2023-03-05T04:34:05;2.10;99.90
69031;DHT22;56083;48.774;8.942;2023-03-05T04:36:34;2.10;99.90
69031;DHT22;56083;48.774;8.942;2023-03-05T04:38:59;2.00;99.90
69031;DHT22;56083;48.774;8.942;2023-03-05T04:41:25;2.00;99.90
69031;DHT22;56083;48.774;8.942;2023-03-05T04:43:51;2.00;99.90
69031;DHT22;56083;48.774;8.942;2023-03-05T04:46:16;2.10;99.90
69031;DHT22;56083;48.774;8.942;2023-03-05T04:48:42;2.10;99.90
69031;DHT22;56083;48.774;8.942;2023-03-05T04:51:07;2.10;99.90
69031;DHT22;56083;48.774;8.942;2023-03-05T04:53:33;2.10;99.90
69031;DHT22;56083;48.774;8.942;2023-03-05T04:55:59;2.10;99.90
69031;DHT22;56083;48.774;8.942;2023-03-05T04:58:26;2.10;99.90
69031;DHT22;56083;48.774;8.942;2023-03-05T05:00:52;2.10;99.90
69031;DHT22;56083;48.774;8.942;2023-03-05T05:03:18;2.10;99.90
69031;DHT22;56083;48.774;8.942;2023-03-05T05:05:43;2.00;99.90
69031;DHT22;56083;48.774;8.942;2023-03-05T05:08:09;2.00;99.90
69031;DHT22;56083;48.774;8.942;2023-03-05T05:10:35;2.00;99.90
69031;DHT22;56083;48.774;8.942;2023-03-05T05:13:04;2.00;99.90
69031;DHT22;56083;48.774;8.942;2023-03-05T05:15:29;2.00;99.90
69031;DHT22;56083;48.774;8.942;2023-03-05T05:17:56;2.00;99.90
69031;DHT22;56083;48.774;8.942;2023-03-05T05:20:22;2.00;99.90
69031;DHT22;56083;48.774;8.942;2023-03-05T05:22:48;2.00;99.90
69031;DHT22;56083;48.774;8.942;2023-03-05T05:25:14;2.00;99.90
69031;DHT22;56083;48.774;8.942;2023-03-05T05:27:39;2.00;99.90
69031;DHT22;56083;48.774;8.942;2023-03-05T05:30:06;2.00;99.90
69031;DHT22;56083;48.774;8.942;2023-03-05T05:32:32;2.00;99.90
69031;DHT22;56083;48.774;8.942;2023-03-05T05:34:58;2.00;99.90
69031;DHT22;56083;48.774;8.942;2023-03-05T05:37:24;2.00;99.90
69031;DHT22;56083;48.774;8.942;2023-03-05T05:39:50;1.90;99.90
69031;DHT22;56083;48.774;8.942;2023-03-05T05:42:17;1.90;99.90
69031;DHT22;56083;48.774;8.942;2023-03-05T05:44:43;1.90;99.90
69031;DHT22;56083;48.774;8.942;2023-03-05T05:47:09;1.90;99.90
69031;DHT22;56083;48.774;8.942;2023-03-05T05:49:34;1.90;99.90
69031;DHT22;56083;48.774;8.942;2023-03-05T05:52:00;1.90;99.90
69031;DHT22;56083;48.774;8.942;2023-03-05T05:54:25;1.90;99.90
69031;DHT22;56083;48.774;8.942;2023-03-05T05:56:51;1.90;99.90
69031;DHT22;56083;48.774;8.942;2023-03-05T05:59:17;1.90;99.90
69031;DHT22;56083;48.774;8.942;2023-03-05T06:01:42;1.80;99.90
69031;DHT22;56083;48.774;8.942;2023-03-05T06:04:08;1.90;99.90
69031;DHT22;56083;48.774;8.942;2023-03-05T06:06:34;1.90;99.90
69031;DHT22;56083;48.774;8.942;2023-03-05T06:09:00;1.90;99.90
69031;DHT22;56083;48.774;8.942;2023-03-05T06:11:26;1.90;99.90
69031;DHT22;56083;48.774;8.942;2023-03-05T06:13:51;1.90;99.90
69031;DHT22;56083;48.774;8.942;2023-03-05T06:16:20;1.90;99.90
69031;DHT22;56083;48.774;8.942;2023-03-05T06:18:46;1.90;99.90
69031;DHT22;56083;48.774;8.942;2023-03-05T06:21:15;1.90;99.90
69031;DHT22;56083;48.774;8.942;2023-03-05T06:23:42;1.90;99.90
69031;DHT22;56083;48.774;8.942;2023-03-05T06:26:09;1.90;99.90
69031;DHT22;56083;48.774;8.942;2023-03-05T06:28:35;1.90;99.90
69031;DHT22;56083;48.774;8.942;2023-03-05T06:31:02;2.00;99.90
69031;DHT22;56083;48.774;8.942;2023-03-05T06:33:28;2.00;99.90
69031;DHT22;56083;48.774;8.942;2023-03-05T06:35:53;2.00;99.90
69031;DHT22;56083;48.774;8.942;2023-03-05T06:38:19;2.10;99.90
69031;DHT22;56083;48.774;8.942;2023-03-05T06:40:45;2.10;99.90
69031;DHT22;56083;48.774;8.942;2023-03-05T06:43:10;2.10;99.90
69031;DHT22;56083;48.774;8.942;2023-03-05T06:45:36;2.20;99.90
69031;DHT22;56083;48.774;8.942;2023-03-05T06:48:02;2.20;99.90
69031;DHT22;56083;48.774;8.942;2023-03-05T06:50:27;2.20;99.90
69031;DHT22;56083;48.774;8.942;2023-03-05T06:52:53;2.30;99.90
69031;DHT22;56083;48.774;8.942;2023-03-05T06:55:19;2.30;99.90
69031;DHT22;56083;48.774;8.942;2023-03-05T06:57:46;2.40;99.90
69031;DHT22;56083;48.774;8.942;2023-03-05T07:00:12;2.40;99.90
69031;DHT22;56083;48.774;8.942;2023-03-05T07:02:38;2.30;99.90
69031;DHT22;56083;48.774;8.942;2023-03-05T07:05:04;2.40;99.90
69031;DHT22;56083;48.774;8.942;2023-03-05T07:07:31;2.50;99.90
69031;DHT22;56083;48.774;8.942;2023-03-05T07:09:57;2.50;99.90
69031;DHT22;56083;48.774;8.942;2023-03-05T07:12:23;2.50;99.90
69031;DHT22;56083;48.774;8.942;2023-03-05T07:14:48;2.60;99.90
69031;DHT22;56083;48.774;8.942;2023-03-05T07:17:14;2.60;99.90
69031;DHT22;56083;48.774;8.942;2023-03-05T07:19:40;2.60;99.90
69031;DHT22;56083;48.774;8.942;2023-03-05T07:22:07;2.70;99.90
69031;DHT22;56083;48.774;8.942;2023-03-05T07:24:33;2.70;99.90
69031;DHT22;56083;48.774;8.942;2023-03-05T07:26:58;2.70;99.90
69031;DHT22;56083;48.774;8.942;2023-03-05T07:29:26;2.80;99.90
69031;DHT22;56083;48.774;8.942;2023-03-05T07:31:52;2.80;99.90
69031;DHT22;56083;48.774;8.942;2023-03-05T07:34:18;2.80;99.90
69031;DHT22;56083;48.774;8.942;2023-03-05T07:36:43;2.80;99.90
69031;DHT22;56083;48.774;8.942;2023-03-05T07:39:10;2.90;99.90
69031;DHT22;56083;48.774;8.942;2023-03-05T07:41:37;3.00;99.90
69031;DHT22;56083;48.774;8.942;2023-03-05T07:44:03;3.00;99.90
69031;DHT22;56083;48.774;8.942;2023-03-05T07:46:30;3.10;99.90
69031;DHT22;56083;48.774;8.942;2023-03-05T07:48:56;3.20;99.90
69031;DHT22;56083;48.774;8.942;2023-03-05T07:51:23;3.20;99.90
69031;DHT22;56083;48.774;8.942;2023-03-05T07:53:51;3.20;99.90
69031;DHT22;56083;48.774;8.942;2023-03-05T07:56:27;3.20;99.90
69031;DHT22;56083;48.774;8.942;2023-03-05T07:59:07;3.40;99.90
69031;DHT22;56083;48.774;8.942;2023-03-05T08:01:33;3.40;99.90
69031;DHT22;56083;48.774;8.942;2023-03-05T08:04:00;3.50;99.90
69031;DHT22;56083;48.774;8.942;2023-03-05T08:06:25;3.60;99.90
69031;DHT22;56083;48.774;8.942;2023-03-05T08:08:51;3.70;99.90
69031;DHT22;56083;48.774;8.942;2023-03-05T08:11:17;3.80;99.90
69031;DHT22;56083;48.774;8.942;2023-03-05T08:13:43;3.80;99.90
69031;DHT22;56083;48.774;8.942;2023-03-05T08:16:19;3.90;99.90
69031;DHT22;56083;48.774;8.942;2023-03-05T08:18:45;4.00;99.90
69031;DHT22;56083;48.774;8.942;2023-03-05T08:21:19;3.90;99.90
69031;DHT22;56083;48.774;8.942;2023-03-05T08:23:45;4.00;99.90
69031;DHT22;56083;48.774;8.942;2023-03-05T08:26:14;4.00;99.90
69031;DHT22;56083;48.774;8.942;2023-03-05T08:28:40;4.20;99.90
69031;DHT22;56083;48.774;8.942;2023-03-05T08:31:10;4.30;99.90
69031;DHT22;56083;48.774;8.942;2023-03-05T08:33:37;4.40;99.90
69031;DHT22;56083;48.774;8.942;2023-03-05T08:36:03;4.60;99.90
69031;DHT22;56083;48.774;8.942;2023-03-05T08:38:28;4.60;99.90
69031;DHT22;56083;48.774;8.942;2023-03-05T08:40:54;4.80;99.90
69031;DHT22;56083;48.774;8.942;2023-03-05T08:43:20;4.90;99.90
69031;DHT22;56083;48.774;8.942;2023-03-05T08:45:46;5.10;99.90
69031;DHT22;56083;48.774;8.942;2023-03-05T08:48:15;5.30;99.90
69031;DHT22;56083;48.774;8.942;2023-03-05T08:50:41;5.40;99.90
69031;DHT22;56083;48.774;8.942;2023-03-05T08:53:07;5.50;99.90
69031;DHT22;56083;48.774;8.942;2023-03-05T08:55:33;5.70;99.90
69031;DHT22;56083;48.774;8.942;2023-03-05T08:57:58;5.60;99.90
69031;DHT22;56083;48.774;8.942;2023-03-05T09:00:24;5.60;99.90
69031;DHT22;56083;48.774;8.942;2023-03-05T09:02:50;5.60;99.90
69031;DHT22;56083;48.774;8.942;2023-03-05T09:05:16;5.70;99.90
69031;DHT22;56083;48.774;8.942;2023-03-05T09:07:43;5.70;99.90
69031;DHT22;56083;48.774;8.942;2023-03-05T09:10:10;5.70;99.90
69031;DHT22;56083;48.774;8.942;2023-03-05T09:12:38;5.90;99.90
69031;DHT22;56083;48.774;8.942;2023-03-05T09:15:08;6.00;99.90
69031;DHT22;56083;48.774;8.942;2023-03-05T09:17:35;5.90;99.90
69031;DHT22;56083;48.774;8.942;2023-03-05T09:20:01;5.90;99.90
69031;DHT22;56083;48.774;8.942;2023-03-05T09:22:28;5.80;99.90
69031;DHT22;56083;48.774;8.942;2023-03-05T09:24:54;5.70;99.90
69031;DHT22;56083;48.774;8.942;2023-03-05T09:27:20;5.70;99.90
69031;DHT22;56083;48.774;8.942;2023-03-05T09:29:46;5.50;99.90
69031;DHT22;56083;48.774;8.942;2023-03-05T09:32:12;5.40;99.90
69031;DHT22;56083;48.774;8.942;2023-03-05T09:34:38;5.30;99.90
69031;DHT22;56083;48.774;8.942;2023-03-05T09:37:04;5.10;99.90
69031;DHT22;56083;48.774;8.942;2023-03-05T09:39:29;5.00;99.90
69031;DHT22;56083;48.774;8.942;2023-03-05T09:45:25;4.90;99.90
69031;DHT22;56083;48.774;8.942;2023-03-05T09:48:16;4.80;99.90
69031;DHT22;56083;48.774;8.942;2023-03-05T09:51:00;4.80;99.90
69031;DHT22;56083;48.774;8.942;2023-03-05T09:56:23;5.00;99.90
69031;DHT22;56083;48.774;8.942;2023-03-05T09:58:58;5.10;99.90
69031;DHT22;56083;48.774;8.942;2023-03-05T10:01:50;5.20;99.90
69031;DHT22;56083;48.774;8.942;2023-03-05T10:04:25;5.40;99.90
69031;DHT22;56083;48.774;8.942;2023-03-05T10:07:20;5.40;99.90
69031;DHT22;56083;48.774;8.942;2023-03-05T10:10:14;5.60;99.90
69031;DHT22;56083;48.774;8.942;2023-03-05T10:12:44;5.60;99.90
69031;DHT22;56083;48.774;8.942;2023-03-05T10:15:56;5.60;99.90
69031;DHT22;56083;48.774;8.942;2023-03-05T10:18:26;5.70;99.90
69031;DHT22;56083;48.774;8.942;2023-03-05T10:40:24;5.10;99.90
69031;DHT22;56083;48.774;8.942;2023-03-05T10:45:42;5.10;99.90
69031;DHT22;56083;48.774;8.942;2023-03-05T10:51:14;5.10;99.90
69031;DHT22;56083;48.774;8.942;2023-03-05T10:53:55;5.10;99.90
69031;DHT22;56083;48.774;8.942;2023-03-05T10:56:24;5.10;99.90
69031;DHT22;56083;48.774;8.942;2023-03-05T10:58:50;5.10;99.90
69031;DHT22;56083;48.774;8.942;2023-03-05T11:04:25;5.10;99.90
69031;DHT22;56083;48.774;8.942;2023-03-05T11:06:51;5.00;99.90
69031;DHT22;56083;48.774;8.942;2023-03-05T11:09:30;4.90;99.90
69031;DHT22;56083;48.774;8.942;2023-03-05T11:14:35;4.70;99.90
69031;DHT22;56083;48.774;8.942;2023-03-05T11:17:22;4.60;99.90
69031;DHT22;56083;48.774;8.942;2023-03-05T11:19:48;4.70;99.90
69031;DHT22;56083;48.774;8.942;2023-03-05T11:22:17;4.70;99.90
69031;DHT22;56083;48.774;8.942;2023-03-05T11:25:19;4.70;99.90
69031;DHT22;56083;48.774;8.942;2023-03-05T11:27:54;4.70;99.90
69031;DHT22;56083;48.774;8.942;2023-03-05T11:30:30;4.80;99.90
69031;DHT22;56083;48.774;8.942;2023-03-05T11:33:17;4.90;99.90
69031;DHT22;56083;48.774;8.942;2023-03-05T11:35:46;4.90;99.90
69031;DHT22;56083;48.774;8.942;2023-03-05T11:38:26;4.80;99.90
69031;DHT22;56083;48.774;8.942;2023-03-05T11:40:55;4.80;99.90
69031;DHT22;56083;48.774;8.942;2023-03-05T11:43:24;4.80;99.90
69031;DHT22;56083;48.774;8.942;2023-03-05T11:45:58;4.70;99.90
69031;DHT22;56083;48.774;8.942;2023-03-05T11:48:29;4.60;99.90
69031;DHT22;56083;48.774;8.942;2023-03-05T11:51:01;4.50;99.90
69031;DHT22;56083;48.774;8.942;2023-03-05T11:53:31;4.40;99.90
69031;DHT22;56083;48.774;8.942;2023-03-05T11:59:15;4.40;99.90
69031;DHT22;56083;48.774;8.942;2023-03-05T12:01:52;4.40;99.90
69031;DHT22;56083;48.774;8.942;2023-03-05T12:04:19;4.40;99.90
69031;DHT22;56083;48.774;8.942;2023-03-05T12:06:53;4.50;99.90
69031;DHT22;56083;48.774;8.942;2023-03-05T12:09:38;4.50;99.90
69031;DHT22;56083;48.774;8.942;2023-03-05T12:17:41;5.00;99.90
69031;DHT22;56083;48.774;8.942;2023-03-05T12:20:36;5.10;99.90
69031;DHT22;56083;48.774;8.942;2023-03-05T12:23:15;5.20;99.90
69031;DHT22;56083;48.774;8.942;2023-03-05T12:25:47;5.10;99.90
69031;DHT22;56083;48.774;8.942;2023-03-05T12:31:04;5.10;99.90
69031;DHT22;56083;48.774;8.942;2023-03-05T12:33:38;5.00;99.90
69031;DHT22;56083;48.774;8.942;2023-03-05T12:38:45;5.10;99.90
69031;DHT22;56083;48.774;8.942;2023-03-05T12:46:37;5.40;99.90
69031;DHT22;56083;48.774;8.942;2023-03-05T12:51:52;5.60;99.90
69031;DHT22;56083;48.774;8.942;2023-03-05T12:54:30;5.60;99.90
69031;DHT22;56083;48.774;8.942;2023-03-05T12:57:03;5.60;99.90
69031;DHT22;56083;48.774;8.942;2023-03-05T12:59:42;5.50;99.90
69031;DHT22;56083;48.774;8.942;2023-03-05T13:02:36;5.40;99.90
69031;DHT22;56083;48.774;8.942;2023-03-05T13:05:20;5.40;99.90
69031;DHT22;56083;48.774;8.942;2023-03-05T13:07:48;5.40;99.90
69031;DHT22;56083;48.774;8.942;2023-03-05T13:10:26;5.40;99.90
69031;DHT22;56083;48.774;8.942;2023-03-05T13:12:54;5.40;99.90
69031;DHT22;56083;48.774;8.942;2023-03-05T13:15:23;5.20;99.90
69031;DHT22;56083;48.774;8.942;2023-03-05T13:18:03;5.10;99.90
69031;DHT22;56083;48.774;8.942;2023-03-05T13:20:34;5.20;99.90
69031;DHT22;56083;48.774;8.942;2023-03-05T13:25:35;5.20;99.90
69031;DHT22;56083;48.774;8.942;2023-03-05T13:28:08;5.10;99.90
69031;DHT22;56083;48.774;8.942;2023-03-05T13:30:35;5.10;99.90
69031;DHT22;56083;48.774;8.942;2023-03-05T13:33:03;5.10;99.90
69031;DHT22;56083;48.774;8.942;2023-03-05T13:35:32;5.20;99.90
69031;DHT22;56083;48.774;8.942;2023-03-05T13:37:58;5.20;99.90
69031;DHT22;56083;48.774;8.942;2023-03-05T13:40:30;5.30;99.90
69031;DHT22;56083;48.774;8.942;2023-03-05T13:43:14;5.20;99.90
69031;DHT22;56083;48.774;8.942;2023-03-05T13:45:42;5.20;99.90
69031;DHT22;56083;48.774;8.942;2023-03-05T13:48:18;5.20;99.90
69031;DHT22;56083;48.774;8.942;2023-03-05T13:50:44;5.20;99.90
69031;DHT22;56083;48.774;8.942;2023-03-05T13:53:28;5.10;99.90
69031;DHT22;56083;48.774;8.942;2023-03-05T13:55:57;5.00;99.90
69031;DHT22;56083;48.774;8.942;2023-03-05T14:06:30;4.90;99.90
69031;DHT22;56083;48.774;8.942;2023-03-05T14:09:03;4.80;99.90
69031;DHT22;56083;48.774;8.942;2023-03-05T14:11:29;4.70;99.90
69031;DHT22;56083;48.774;8.942;2023-03-05T14:14:12;4.70;99.90
69031;DHT22;56083;48.774;8.942;2023-03-05T14:16:39;4.60;99.90
69031;DHT22;56083;48.774;8.942;2023-03-05T14:19:04;4.60;99.90
69031;DHT22;56083;48.774;8.942;2023-03-05T14:21:45;4.50;99.90
69031;DHT22;56083;48.774;8.942;2023-03-05T14:24:23;4.30;99.90
69031;DHT22;56083;48.774;8.942;2023-03-05T14:26:51;4.30;99.90
69031;DHT22;56083;48.774;8.942;2023-03-05T14:29:20;4.20;99.90
69031;DHT22;56083;48.774;8.942;2023-03-05T14:32:23;4.20;99.90
69031;DHT22;56083;48.774;8.942;2023-03-05T14:34:53;4.20;99.90
69031;DHT22;56083;48.774;8.942;2023-03-05T14:37:23;4.10;99.90
69031;DHT22;56083;48.774;8.942;2023-03-05T14:42:53;4.00;99.90
69031;DHT22;56083;48.774;8.942;2023-03-05T14:45:26;4.00;99.90
69031;DHT22;56083;48.774;8.942;2023-03-05T14:47:54;4.00;99.90
69031;DHT22;56083;48.774;8.942;2023-03-05T14:50:25;4.10;99.90
69031;DHT22;56083;48.774;8.942;2023-03-05T14:52:55;4.10;99.90
69031;DHT22;56083;48.774;8.942;2023-03-05T14:55:23;4.10;99.90
69031;DHT22;56083;48.774;8.942;2023-03-05T14:57:50;4.10;99.90
69031;DHT22;56083;48.774;8.942;2023-03-05T15:00:22;4.00;99.90
69031;DHT22;56083;48.774;8.942;2023-03-05T15:02:48;4.00;99.90
69031;DHT22;56083;48.774;8.942;2023-03-05T15:05:15;3.90;99.90
69031;DHT22;56083;48.774;8.942;2023-03-05T15:07:42;3.90;99.90
69031;DHT22;56083;48.774;8.942;2023-03-05T15:10:09;3.90;99.90
69031;DHT22;56083;48.774;8.942;2023-03-05T15:12:36;3.80;99.90
69031;DHT22;56083;48.774;8.942;2023-03-05T15:15:02;3.80;99.90
69031;DHT22;56083;48.774;8.942;2023-03-05T15:17:38;3.80;99.90
69031;DHT22;56083;48.774;8.942;2023-03-05T15:20:09;3.80;99.90
69031;DHT22;56083;48.774;8.942;2023-03-05T15:22:36;3.70;99.90
69031;DHT22;56083;48.774;8.942;2023-03-05T15:25:02;3.70;99.90
69031;DHT22;56083;48.774;8.942;2023-03-05T15:27:28;3.80;99.90
69031;DHT22;56083;48.774;8.942;2023-03-05T15:29:53;3.70;99.90
69031;DHT22;56083;48.774;8.942;2023-03-05T15:32:19;3.60;99.90
69031;DHT22;56083;48.774;8.942;2023-03-05T15:34:45;3.60;99.90
69031;DHT22;56083;48.774;8.942;2023-03-05T15:37:11;3.70;99.90
69031;DHT22;56083;48.774;8.942;2023-03-05T15:39:37;3.60;99.90
69031;DHT22;56083;48.774;8.942;2023-03-05T15:42:02;3.70;99.90
69031;DHT22;56083;48.774;8.942;2023-03-05T15:44:29;3.60;99.90
69031;DHT22;56083;48.774;8.942;2023-03-05T15:46:55;3.70;99.90
69031;DHT22;56083;48.774;8.942;2023-03-05T15:49:24;3.60;99.90
69031;DHT22;56083;48.774;8.942;2023-03-05T15:51:50;3.60;99.90
69031;DHT22;56083;48.774;8.942;2023-03-05T15:54:17;3.60;99.90
69031;DHT22;56083;48.774;8.942;2023-03-05T15:56:43;3.50;99.90
69031;DHT22;56083;48.774;8.942;2023-03-05T15:59:08;3.60;99.90
69031;DHT22;56083;48.774;8.942;2023-03-05T16:01:36;3.60;99.90
69031;DHT22;56083;48.774;8.942;2023-03-05T16:04:03;3.50;99.90
69031;DHT22;56083;48.774;8.942;2023-03-05T16:06:29;3.50;99.90
69031;DHT22;56083;48.774;8.942;2023-03-05T16:09:01;3.50;99.90
69031;DHT22;56083;48.774;8.942;2023-03-05T16:11:29;3.40;99.90
69031;DHT22;56083;48.774;8.942;2023-03-05T16:13:56;3.40;99.90
69031;DHT22;56083;48.774;8.942;2023-03-05T16:16:21;3.40;99.90
69031;DHT22;56083;48.774;8.942;2023-03-05T16:18:49;3.40;99.90
69031;DHT22;56083;48.774;8.942;2023-03-05T16:21:15;3.30;99.90
69031;DHT22;56083;48.774;8.942;2023-03-05T16:23:41;3.30;99.90
69031;DHT22;56083;48.774;8.942;2023-03-05T16:26:08;3.30;99.90
69031;DHT22;56083;48.774;8.942;2023-03-05T16:28:35;3.20;99.90
69031;DHT22;56083;48.774;8.942;2023-03-05T16:31:04;3.30;99.90
69031;DHT22;56083;48.774;8.942;2023-03-05T16:33:30;3.20;99.90
69031;DHT22;56083;48.774;8.942;2023-03-05T16:36:23;3.20;99.90
69031;DHT22;56083;48.774;8.942;2023-03-05T16:38:51;3.30;99.90
69031;DHT22;56083;48.774;8.942;2023-03-05T16:41:17;3.20;99.90
69031;DHT22;56083;48.774;8.942;2023-03-05T16:43:45;3.20;99.90
69031;DHT22;56083;48.774;8.942;2023-03-05T16:46:12;3.20;99.90
69031;DHT22;56083;48.774;8.942;2023-03-05T16:48:38;3.20;99.90
69031;DHT22;56083;48.774;8.942;2023-03-05T16:51:05;3.20;99.90
69031;DHT22;56083;48.774;8.942;2023-03-05T16:53:31;3.10;99.90
69031;DHT22;56083;48.774;8.942;2023-03-05T16:56:04;3.10;99.90
69031;DHT22;56083;48.774;8.942;2023-03-05T16:58:31;3.00;99.90
69031;DHT22;56083;48.774;8.942;2023-03-05T17:00:58;3.00;99.90
69031;DHT22;56083;48.774;8.942;2023-03-05T17:03:25;2.90;99.90
69031;DHT22;56083;48.774;8.942;2023-03-05T17:05:52;2.90;99.90
69031;DHT22;56083;48.774;8.942;2023-03-05T17:08:18;2.90;99.90